CYTE

Cape Dorset Airport

Cape Dorset, Canada
METAR CYTE 140057Z AUTO 16004KT 9SM OVC018 M06/M09 A2965 RMK SLP045
Observed Flight Rules
Dec-14 @ 00:57 UTC (8 minutes ago) Marginal Visual Flight Rules
Wind Visibility Clouds
160° at 4 knots 9 miles
  • Overcast at 1,800' AGL
Temperatures Readings
Current -6°C / 21°F
Dewpoint -9°C / 16°F
Humidity 80%
Altimeter 29.65" Hg
Pressure 1004.5 hPa
Elevation 47
METAR CYTE 140057Z AUTO 16004KT 9SM OVC018 M06/M09 A2965 RMK SLP045
Observed Flight Rules
Dec-14 @ 00:57 UTC
(8 minutes ago)
MVFR
Wind Visibility
160° at 4 knots 9 miles
Clouds
  • Overcast at 1,800' AGL
Temperature Dewpoint
-6°C / 21°F -9°C / 16°F
Humidity Altimeter Pressure
80% 29.65" Hg 1004.5 hPa